Time;durP1;ratioP1;P1;durP2;ratioP2;P2;SDS_P1;SDS_P2;PMS_P1;PMS_P2;Temp;Humidity;BMP_temperature;BMP_pressure;BME280_temperature;BME280_humidity;BME280_pressure;Samples;Min_cycle;Max_cycle;Signal;HPM_P1;HPM_P2
2022/01/20 00:00:44;;;;;;;;;;;4.00;99.90;;;;;;5118596;27;20047;-61
2022/01/20 00:03:15;;;;;;;15.18;1.67;;;;;;;;;;5131998;27;20300;-63
2022/01/20 00:07:03;;;;;;;10.32;1.45;;;;;;;;;;5118252;27;20047;-62
2022/01/20 00:25:58;;;;;;;11.52;1.55;;;;;;;;;;5082297;28;20040;-63
2022/01/20 00:28:39;;;;;;;12.60;1.67;;;;;;;;;;5069222;28;20040;-61
2022/01/20 00:33:49;;;;;;;11.20;1.25;;;;;;;;;;5061690;28;20054;-61
2022/01/20 00:38:42;;;;;;;11.77;1.40;;;;;;;;;;5076600;28;20047;-61
2022/01/20 00:41:14;;;;;;;9.18;1.73;;;;;;;;;;5071581;28;20036;-62
2022/01/20 00:43:41;;;;;;;10.98;1.20;;;;;;;;;;5129016;27;20031;-63
2022/01/20 00:46:07;;;;;;;13.52;1.58;;;;;;;;;;5132173;27;20043;-61
2022/01/20 00:48:34;;;;;;;8.25;1.10;;;;;;;;;;5127195;27;20092;-63
2022/01/20 00:51:00;;;;;;;10.00;1.05;;;;;;;;;;5130445;27;20070;-62
2022/01/20 00:53:26;;;;;;;10.98;1.30;;;;;;;;;;5130759;27;20047;-62
2022/01/20 00:55:52;;;;;;;9.23;1.05;;;;;;;;;;5131159;27;20042;-61
2022/01/20 00:58:19;;;;;;;14.65;1.65;;;;;;;;;;5129501;27;20121;-62
2022/01/20 01:00:45;;;;;;;9.52;1.20;;;;;;;;;;5115126;27;20047;-62
2022/01/20 01:03:11;;;;;;;7.78;1.40;;;;;;;;;;5116935;27;20047;-62
2022/01/20 01:05:46;;;;;;;9.45;1.60;;;;;;;;;;5130472;27;20503;-61
2022/01/20 01:08:12;;;;;;;15.40;1.25;;;;;;;;;;5117269;27;20039;-60
2022/01/20 01:10:39;;;;;;;10.82;1.50;;;;;;;;;;5131554;27;20061;-62
2022/01/20 01:13:10;;;;;;;13.35;1.52;;;;;;;;;;5130286;27;20039;-60
2022/01/20 01:15:41;;;;;;;9.00;1.25;;;;;;;;;;5129811;27;20050;-62
2022/01/20 01:23:31;;;;;;;9.63;1.45;;;;;;;;;;5128462;27;20077;-62
2022/01/20 01:25:57;;;;;;;10.57;1.60;;;;;;;;;;5122064;27;20043;-62
2022/01/20 01:28:26;;;;;;;6.53;2.22;;;;;;;;;;5131432;27;20062;-63
2022/01/20 01:33:19;;;;;;;3.50;0.90;;;;;;;;;;5130049;27;20039;-63
2022/01/20 01:35:54;;;;;;;4.80;0.70;;;;;;;;;;5123793;27;20504;-61
2022/01/20 01:38:35;;;;;;;6.18;1.00;;;;;;;;;;5128766;27;20070;-62
2022/01/20 01:41:01;;;;;;;3.58;0.70;;;;;;;;;;5129476;27;20049;-62
2022/01/20 01:43:30;;;;;;;8.80;1.45;;;;;;;;;;5127819;27;20431;-62
2022/01/20 01:45:57;;;;;;;5.07;0.90;;;;;;;;;;5117245;27;20075;-61
2022/01/20 01:48:23;;;;;;;7.28;1.05;;;;;;;;;;5122370;27;20077;-62
2022/01/20 01:50:49;;;;;;;4.63;0.60;;;;;;;;;;5127186;27;20075;-62
2022/01/20 01:53:16;;;;;;;2.63;0.60;;;;;;;;;;5129409;27;20051;-60
2022/01/20 01:55:42;;;;;;;6.50;0.98;;;;;;;;;;5129973;27;20115;-63
2022/01/20 01:58:08;;;;;;;4.28;0.60;;;;;;;;;;5112362;28;20097;-62
2022/01/20 02:00:35;;;;;;;6.38;0.80;;;;;;;;;;5129267;27;20035;-60
2022/01/20 02:03:01;;;;;;;7.30;0.60;;;;;;;;;;5123881;28;20442;-62
2022/01/20 02:05:28;;;;;;;6.55;1.42;;;;;;;;;;5127401;28;20401;-61
2022/01/20 02:18:45;;;;;;;6.60;1.02;;;;;;;;;;5129584;28;20442;-61
2022/01/20 02:21:12;;;;;;;12.65;1.63;;;;;;;;;;5119751;28;20051;-62
2022/01/20 02:23:38;;;;;;;6.75;0.95;;;;;;;;;;5128827;28;20031;-61
2022/01/20 02:26:04;;;;;;;4.80;0.80;;;;;;;;;;5127238;28;20027;-62
2022/01/20 02:28:30;;;;;;;5.90;1.05;;;;;;;;;;5129617;28;20041;-64
2022/01/20 02:30:56;;;;;;;6.53;1.20;;;;;;;;;;5115509;28;20039;-61
2022/01/20 02:33:23;;;;;;;6.38;1.10;;;;;;;;;;5125983;28;20137;-61
2022/01/20 02:35:52;;;;;;;5.70;0.80;;;;;;;;;;5127882;28;20039;-62
2022/01/20 02:38:32;;;;;;;6.72;0.75;;;;;;;;;;5126038;28;20439;-61
2022/01/20 02:46:31;;;;;;;4.60;1.20;;;;;;;;;;5127265;28;20074;-62
2022/01/20 02:48:58;;;;;;;12.65;1.15;;;;;;;;;;5128885;28;20039;-62
2022/01/20 02:51:24;;;;;;;7.97;1.30;;;;;;;;;;5125019;28;20096;-60
2022/01/20 02:53:50;;;;;;;13.57;1.35;;;;;;;;;;5129744;28;20051;-61
2022/01/20 02:56:16;;;;;;;12.25;1.90;;;;;;;;;;5127634;28;20050;-61
2022/01/20 02:58:42;;;;;;;8.20;1.10;;;;;;;;;;5130554;28;20035;-61
2022/01/20 03:01:08;;;;;;;10.05;1.20;;;;;;;;;;5131090;27;20410;-60
2022/01/20 03:03:35;;;;;;;13.05;1.40;;;;;;;;;;5131145;27;20783;-62
2022/01/20 03:06:01;;;;;;;4.05;1.15;;;;;;;;;;5132012;27;20096;-62
2022/01/20 03:08:27;;;;;;;5.85;0.68;;;;;;;;;;5131667;27;20031;-62
2022/01/20 03:10:54;;;;;;;8.50;1.20;;;;;;;;;;5133841;27;20107;-63
2022/01/20 03:13:20;;;;;;;8.15;1.10;;;;;;;;;;5129233;27;20429;-60
2022/01/20 03:15:46;;;;;;;9.18;1.25;;;;;;;;;;5127548;27;20409;-61
2022/01/20 03:18:12;;;;;;;4.43;0.82;;;;;;;;;;5126566;27;20118;-62
2022/01/20 03:20:38;;;;;;;8.43;1.63;;;;;;;;;;5133623;27;20046;-61
2022/01/20 03:23:04;;;;;;;7.03;1.25;;;;;;;;;;5131168;27;20039;-62
2022/01/20 03:25:31;;;;;;;14.23;2.03;;;;;;;;;;5133126;27;20134;-60
2022/01/20 03:27:58;;;;;;;17.80;2.17;;;;;;;;;;5133514;27;20047;-61
2022/01/20 03:30:24;;;;;;;12.60;1.80;;;;;;;;;;5114962;27;20378;-61
2022/01/20 03:32:50;;;;;;;15.60;2.22;;;;;;;;;;5119101;27;20552;-62
2022/01/20 03:35:17;;;;;;;15.30;1.90;;;;;;;;;;5133349;27;20031;-60
2022/01/20 03:37:43;;;;;;;20.50;2.38;;;;;;;;;;5132758;27;20043;-61
2022/01/20 03:40:10;;;;;;;19.80;4.00;;;;;;;;;;5122857;27;20078;-60
2022/01/20 03:42:36;;;;;;;14.98;2.10;;;;;;;;;;5117906;27;20044;-60
2022/01/20 03:45:04;;;;;;;12.85;1.80;;;;;;;;;;5128958;27;20035;-60
2022/01/20 03:47:30;;;;;;;10.40;1.70;;;;;;;;;;5131313;27;20034;-62
2022/01/20 03:52:25;;;;;;;15.48;1.80;;;;;;;;;;5130717;27;20432;-60
2022/01/20 03:54:51;;;;;;;23.13;2.78;;;;;;;;;;5129524;27;20544;-61
2022/01/20 03:57:17;;;;;;;21.60;2.30;;;;;;;;;;5116826;27;20039;-61
2022/01/20 03:59:44;;;;;;;15.20;2.72;;;;;;;;;;5117859;27;20044;-62
2022/01/20 04:02:10;;;;;;;20.55;2.75;;;;;;;;;;5129036;27;20027;-62
2022/01/20 04:04:36;;;;;;;11.73;2.72;;;;;;;;;;5130092;27;20039;-61
2022/01/20 04:07:02;;;;;;;13.85;1.80;;;;;;;;;;5131514;27;20041;-61
2022/01/20 04:09:28;;;;;;;19.33;3.08;;;;;;;;;;5132310;27;20084;-60
2022/01/20 04:11:54;;;;;;;24.00;2.47;;;;;;;;;;5131357;27;20562;-62
2022/01/20 04:14:23;;;;;;;19.92;2.75;;;;;;;;;;5144155;27;20126;-61
2022/01/20 04:17:16;;;;;;;22.15;3.10;;;;;;;;;;5130380;27;20039;-61
2022/01/20 04:19:36;;;;;;;18.73;2.25;;;;;;;;;;5131317;27;20045;-62
2022/01/20 04:22:03;;;;;;;19.67;3.00;;;;;;;;;;5131975;27;20437;-61
2022/01/20 04:24:29;;;;;;;20.98;3.10;;;;;;;;;;5130755;27;20038;-61
2022/01/20 04:26:56;;;;;;;19.58;2.58;;;;;;;;;;5129558;27;20382;-62
2022/01/20 04:29:22;;;;;;;19.73;2.85;;;;;;;;;;5131065;27;20039;-62
2022/01/20 04:31:49;;;;;;;21.90;2.80;;;;;;;;;;5131757;27;20370;-62
2022/01/20 04:34:15;;;;;;;16.88;2.47;;;;;;;;;;5131439;27;20043;-62
2022/01/20 04:36:44;;;;;;;21.02;3.15;;;;;;;;;;5114752;27;20039;-64
2022/01/20 04:39:13;;;;;;;17.33;2.33;;;;;;;;;;5130389;27;20070;-62
2022/01/20 04:41:39;;;;;;;14.15;2.05;;;;;;;;;;5112329;27;20083;-62
2022/01/20 04:44:15;;;;;;;18.63;2.55;;;;;;;;;;5117139;27;20035;-61
2022/01/20 04:46:56;;;;;;;14.93;2.28;;;;;;;;;;5125376;27;20039;-62
2022/01/20 04:57:37;;;;;;;18.98;1.98;;;;;;;;;;5129605;27;20043;-63
2022/01/20 05:00:04;;;;;;;12.57;2.20;;;;;;;;;;5132135;27;20046;-62
2022/01/20 05:02:30;;;;;;;9.13;1.35;;;;;;;;;;5129461;27;20031;-61
2022/01/20 05:04:56;;;;;;;11.02;2.45;;;;;;;;;;5128315;27;20035;-63
2022/01/20 05:07:26;;;;;;;10.93;1.65;;;;;;;;;;5129868;27;20925;-63
2022/01/20 05:09:54;;;;;;;13.55;2.03;;;;;;;;;;5128089;27;20042;-62
2022/01/20 05:12:26;;;;;;;14.80;2.10;;;;;;;;;;5128316;27;20027;-62
2022/01/20 05:14:54;;;;;;;15.38;2.13;;;;;;;;;;5130307;27;20550;-62
2022/01/20 05:17:20;;;;;;;13.82;1.92;;;;;;;;;;5116641;27;20477;-60
2022/01/20 05:19:46;;;;;;;12.60;1.70;;;;;;;;;;5129801;27;20031;-61
2022/01/20 05:22:12;;;;;;;14.20;2.25;;;;;;;;;;5126355;27;20039;-61
2022/01/20 05:24:38;;;;;;;9.60;1.20;;;;;;;;;;5126300;27;20080;-63
2022/01/20 05:27:04;;;;;;;15.00;2.25;;;;;;;;;;5129971;27;20450;-62
2022/01/20 05:29:30;;;;;;;10.07;2.50;;;;;;;;;;5129391;27;20035;-62
2022/01/20 05:31:56;;;;;;;10.38;1.60;;;;;;;;;;5130042;27;20539;-61
2022/01/20 05:34:22;;;;;;;8.35;1.02;;;;;;;;;;5126621;27;20054;-62
2022/01/20 05:36:48;;;;;;;3.72;1.02;;;;;;;;;;5127822;27;20049;-62
2022/01/20 05:39:15;;;;;;;10.20;1.52;;;;;;;;;;5130467;27;20260;-62
2022/01/20 05:41:41;;;;;;;7.65;1.20;;;;;;;;;;5129689;27;20038;-62
2022/01/20 05:44:07;;;;;;;10.80;1.33;;;;;;;;;;5131585;27;20110;-63
2022/01/20 05:46:37;;;;;;;10.82;2.10;;;;;;;;;;5127451;27;20085;-63
2022/01/20 05:49:10;;;;;;;13.77;1.40;;;;;;;;;;5113126;28;20039;-63
2022/01/20 05:51:40;;;;;;;9.50;1.30;;;;;;;;;;5129736;27;20051;-63
2022/01/20 05:54:06;;;;;;;8.13;1.35;;;;;;;;;;5130053;27;20046;-62
2022/01/20 05:56:32;;;;;;;7.32;1.10;;;;;;;;;;5121272;28;20057;-61
2022/01/20 05:58:59;;;;;;;11.13;1.58;;;;;;;;;;5129138;28;20084;-62
2022/01/20 06:01:26;;;;;;;12.10;1.67;;;;;;;;;;5129278;28;20061;-61
2022/01/20 06:03:52;;;;;;;24.17;11.45;;;;;;;;;;5134745;27;20035;-62
2022/01/20 06:06:18;;;;;;;9.18;1.60;;;;;;;;;;5129450;28;20045;-64
2022/01/20 06:08:44;;;;;;;12.63;2.78;;;;;;;;;;5130678;28;20027;-62
2022/01/20 06:11:10;;;;;;;12.95;1.65;;;;;;;;;;5128116;28;20449;-61
2022/01/20 06:13:36;;;;;;;10.13;1.42;;;;;;;;;;5129680;28;20042;-63
2022/01/20 06:16:03;;;;;;;13.13;1.65;;;;;;;;;;5129919;28;20038;-62
2022/01/20 06:18:29;;;;;;;11.60;1.50;;;;;;;;;;5127208;28;20126;-60
2022/01/20 06:20:56;;;;;;;13.55;2.72;;;;;;;;;;5142652;27;20125;-62
2022/01/20 06:23:22;;;;;;;12.82;2.20;;;;;;;;;;5130132;28;20043;-62
2022/01/20 06:25:48;;;;;;;13.27;1.95;;;;;;;;;;5130579;28;20046;-62
2022/01/20 06:28:15;;;;;;;11.77;2.20;;;;;;;;;;5129922;28;20618;-63
2022/01/20 06:30:41;;;;;;;8.23;1.48;;;;;;;;;;5130580;28;20164;-60
2022/01/20 06:33:07;;;;;;;11.90;1.90;;;;;;;;;;5113572;28;20067;-63
2022/01/20 06:35:33;;;;;;;9.60;1.73;;;;;;;;;;5131883;27;20079;-63
2022/01/20 06:37:59;;;;;;;8.70;1.40;;;;;;;;;;5134101;27;20043;-61
2022/01/20 06:40:26;;;;;;;13.27;1.63;;;;;;;;;;5134186;27;20514;-62
2022/01/20 06:42:52;;;;;;;11.70;2.05;;;;;;;;;;5134434;27;20079;-63
2022/01/20 06:45:18;;;;;;;7.25;1.58;;;;;;;;;;5134546;27;20031;-63
2022/01/20 06:47:44;;;;;;;8.02;1.40;;;;;;;;;;5134436;27;20078;-62
2022/01/20 06:50:11;;;;;;;7.75;2.38;;;;;;;;;;5133855;27;20474;-63
2022/01/20 06:52:37;;;;;;;7.20;1.20;;;;;;;;;;5134863;27;20238;-64
2022/01/20 06:55:10;;;;;;;7.10;1.27;;;;;;;;;;5133499;27;20039;-63
2022/01/20 06:57:36;;;;;;;9.50;1.40;;;;;;;;;;5136248;27;20035;-62
2022/01/20 07:00:05;;;;;;;7.80;1.20;;;;;;;;;;5134087;27;20039;-62
2022/01/20 07:02:31;;;;;;;11.35;1.50;;;;;;;;;;5124290;27;20047;-63
2022/01/20 07:04:57;;;;;;;9.40;1.35;;;;;;;;;;5134646;27;20495;-62
2022/01/20 07:07:23;;;;;;;10.52;2.20;;;;;;;;;;5133254;27;20047;-62
2022/01/20 07:09:49;;;;;;;8.55;1.55;;;;;;;;;;5134486;27;20039;-61
2022/01/20 07:12:15;;;;;;;13.48;1.92;;;;;;;;;;5116136;27;20036;-63
2022/01/20 07:14:41;;;;;;;13.50;1.48;;;;;;;;;;5134124;27;20040;-62
2022/01/20 07:17:07;;;;;;;14.82;1.92;;;;;;;;;;5134324;27;20435;-62
2022/01/20 07:19:33;;;;;;;7.53;1.48;;;;;;;;;;5133979;27;20087;-62
2022/01/20 07:22:00;;;;;;;11.55;1.45;;;;;;;;;;5115699;27;20047;-64
2022/01/20 07:24:27;;;;;;;13.15;1.85;;;;;;;;;;5133680;27;20039;-63
2022/01/20 07:26:53;;;;;;;11.00;1.63;;;;;;;;;;5133703;27;20039;-63
2022/01/20 07:29:19;;;;;;;9.85;1.77;;;;;;;;;;5115926;27;20032;-61
2022/01/20 07:31:45;;;;;;;13.50;1.63;;;;;;;;;;5115818;27;20043;-61
2022/01/20 07:34:11;;;;;;;14.82;2.25;;;;;;;;;;5129971;27;20486;-63
2022/01/20 07:36:37;;;;;;;11.20;1.77;;;;;;;;;;5134160;27;20039;-63
2022/01/20 07:39:04;;;;;;;12.20;1.70;;;;;;;;;;5133880;27;20039;-62
2022/01/20 07:41:30;;;;;;;9.48;1.65;;;;;;;;;;5134017;27;20039;-62
2022/01/20 07:43:56;;;;;;;13.55;1.60;;;;;;;;;;5134103;27;20074;-61
2022/01/20 07:46:22;;;;;;;10.70;2.05;;;;;;;;;;5115491;27;20031;-61
2022/01/20 07:48:48;;;;;;;12.43;2.55;;;;;;;;;;5133341;27;20042;-63
2022/01/20 07:51:15;;;;;;;11.43;1.35;;;;;;;;;;5133661;27;20051;-62
2022/01/20 07:53:41;;;;;;;14.60;1.85;;;;;;;;;;5115477;27;20485;-62
2022/01/20 07:56:07;;;;;;;12.95;2.47;;;;;;;;;;5134073;27;20378;-62
2022/01/20 07:58:34;;;;;;;9.35;1.83;;;;;;;;;;5133717;27;20041;-62
2022/01/20 08:01:00;;;;;;;12.25;2.40;;;;;;;;;;5133667;27;20035;-62
2022/01/20 08:03:26;;;;;;;11.27;1.70;;;;;;;;;;5098072;27;20115;-62
2022/01/20 08:05:52;;;;;;;8.48;1.63;;;;;;;;;;5133579;27;20492;-61
2022/01/20 08:08:18;;;;;;;9.43;1.40;;;;;;;;;;5133391;27;20077;-63
2022/01/20 08:10:44;;;;;;;13.55;2.10;;;;;;;;;;5133565;27;20073;-62
2022/01/20 08:13:10;;;;;;;12.00;2.03;;;;;;;;;;5133442;27;20046;-62
2022/01/20 08:15:36;;;;;;;12.05;1.80;;;;;;;;;;5133644;27;20039;-62
2022/01/20 08:18:03;;;;;;;11.77;1.45;;;;;;;;;;5133310;27;20511;-62
2022/01/20 08:20:29;;;;;;;10.15;2.40;;;;;;;;;;5114675;27;20043;-62
2022/01/20 08:22:55;;;;;;;15.40;1.65;;;;;;;;;;5115334;27;20027;-61
2022/01/20 08:25:23;;;;;;;11.68;1.60;;;;;;;;;;5133395;27;20042;-62
2022/01/20 08:27:49;;;;;;;10.95;2.00;;;;;;;;;;5133082;27;20100;-63
2022/01/20 08:30:17;;;;;;;11.30;2.13;;;;;;;;;;5133024;27;20122;-62
2022/01/20 08:32:43;;;;;;;12.23;2.13;;;;;;;;;;5133482;27;20031;-60
2022/01/20 08:35:10;;;;;;;9.68;1.80;;;;;;;;;;5133069;27;20038;-63
2022/01/20 08:37:40;;;;;;;13.32;1.42;;;;;;;;;;5132722;27;20045;-62
2022/01/20 08:40:12;;;;;;;13.30;2.28;;;;;;;;;;5133052;27;20035;-63
2022/01/20 08:42:38;;;;;;;13.00;2.00;;;;;;;;;;5114640;27;20156;-63
2022/01/20 08:45:04;;;;;;;13.43;2.17;;;;;;;;;;5132707;27;20042;-62
2022/01/20 08:47:30;;;;;;;12.88;2.10;;;;;;;;;;5129763;27;20038;-63
2022/01/20 08:49:56;;;;;;;13.90;1.77;;;;;;;;;;5131971;27;20039;-62
2022/01/20 08:52:22;;;;;;;17.30;1.85;;;;;;;;;;5131865;27;20047;-62
2022/01/20 08:54:50;;;;;;;14.30;1.77;;;;;;;;;;5132212;27;20116;-62
2022/01/20 08:57:16;;;;;;;15.80;2.92;;;;;;;;;;5132355;27;20115;-62
2022/01/20 08:59:42;;;;;;;14.40;2.47;;;;;;;;;;5132301;27;20129;-64
2022/01/20 09:02:09;;;;;;;16.15;2.72;;;;;;;;;;5132101;27;20032;-62
2022/01/20 09:04:35;;;;;;;12.98;2.05;;;;;;;;;;5113530;27;20123;-62
2022/01/20 09:07:01;;;;;;;15.48;2.33;;;;;;;;;;5132112;27;20039;-61
2022/01/20 09:09:27;;;;;;;18.85;2.90;;;;;;;;;;5132051;27;20748;-62
2022/01/20 09:12:15;;;;;;;14.65;2.55;;;;;;;;;;5113790;27;20490;-61
2022/01/20 09:17:27;;;;;;;15.70;2.08;;;;;;;;;;5131567;27;20057;-62
2022/01/20 09:19:54;;;;;;;10.43;2.25;;;;;;;;;;5131677;27;20088;-62
2022/01/20 09:22:20;;;;;;;18.42;3.58;;;;;;;;;;5132100;27;20039;-62
2022/01/20 09:24:47;;;;;;;14.45;2.25;;;;;;;;;;5131890;27;20039;-61
2022/01/20 09:27:13;;;;;;;11.43;1.58;;;;;;;;;;5132184;27;20054;-63
2022/01/20 09:29:40;;;;;;;20.88;2.38;;;;;;;;;;5132250;27;20046;-62
2022/01/20 09:32:08;;;;;;;12.00;2.17;;;;;;;;;;5110323;28;20496;-63
2022/01/20 09:34:34;;;;;;;16.20;2.30;;;;;;;;;;5131586;27;20485;-61
2022/01/20 09:37:00;;;;;;;14.50;2.10;;;;;;;;;;5131850;27;20074;-63
2022/01/20 09:39:26;;;;;;;12.70;2.10;;;;;;;;;;5131866;27;20435;-64
2022/01/20 09:41:52;;;;;;;12.45;2.30;;;;;;;;;;5131535;27;20135;-61
2022/01/20 09:44:18;;;;;;;13.27;2.45;;;;;;;;;;5113867;27;20757;-63
2022/01/20 09:46:45;;;;;;;12.70;2.10;;;;;;;;;;5131991;27;20063;-62
2022/01/20 09:49:11;;;;;;;13.60;1.80;;;;;;;;;;5131783;27;20042;-62
2022/01/20 09:51:38;;;;;;;10.60;1.77;;;;;;;;;;5131521;27;20668;-63
2022/01/20 09:54:05;;;;;;;10.88;1.70;;;;;;;;;;5131487;27;20121;-63
2022/01/20 09:56:31;;;;;;;9.30;1.90;;;;;;;;;;5131493;27;20042;-62
2022/01/20 09:58:57;;;;;;;14.68;2.40;;;;;;;;;;5131332;27;20042;-62
2022/01/20 10:01:35;;;;;;;12.32;2.08;;;;;;;;;;5131674;28;20047;-62
2022/01/20 10:04:01;;;;;;;14.70;1.85;;;;;;;;;;5131370;28;20036;-62
2022/01/20 10:06:27;;;;;;;8.20;1.65;;;;;;;;;;5131471;28;20070;-62
2022/01/20 10:09:00;;;;;;;17.15;2.13;;;;;;;;;;5113336;28;20193;-62
2022/01/20 10:11:28;;;;;;;13.60;2.20;;;;;;;;;;5134505;27;20031;-63
2022/01/20 10:13:56;;;;;;;14.57;1.80;;;;;;;;;;5135945;27;20087;-63
2022/01/20 10:16:22;;;;;;;12.35;2.05;;;;;;;;;;5135757;27;20027;-61
2022/01/20 10:18:57;;;;;;;15.15;2.13;;;;;;;;;;5135875;27;20385;-63
2022/01/20 10:21:34;;;;;;;13.35;1.90;;;;;;;;;;5135493;27;20039;-62
2022/01/20 10:24:07;;;;;;;10.38;2.85;;;;;;;;;;5135326;27;20031;-63
2022/01/20 10:26:34;;;;;;;13.13;2.10;;;;;;;;;;5135618;27;20043;-63
2022/01/20 10:29:02;;;;;;;12.75;1.60;;;;;;;;;;5135404;27;20452;-63
2022/01/20 10:31:40;;;;;;;10.98;2.03;;;;;;;;;;5135465;27;20068;-63
2022/01/20 10:34:08;;;;;;;13.70;2.13;;;;;;;;;;5135163;27;20565;-63
2022/01/20 10:36:40;;;;;;;11.20;1.70;;;;;;;;;;5135487;27;20035;-63
2022/01/20 10:39:06;;;;;;;12.63;3.10;;;;;;;;;;5131326;27;20061;-62
2022/01/20 10:41:34;;;;;;;13.88;2.33;;;;;;;;;;5133258;27;20043;-64
2022/01/20 10:44:01;;;;;;;13.43;2.67;;;;;;;;;;5122753;27;20039;-63
2022/01/20 10:46:27;;;;;;;15.88;1.90;;;;;;;;;;5134984;27;20042;-64
2022/01/20 10:49:00;;;;;;;15.25;1.98;;;;;;;;;;5134924;27;20157;-64
2022/01/20 10:51:26;;;;;;;;;;;;;;;;;;5135158;27;20094;-61
2022/01/20 10:54:03;;;;;;;12.57;1.88;;;;;;;;;;5134589;27;20002;-63
2022/01/20 10:56:29;;;;;;;8.50;1.80;;;;;;;;;;5134426;27;20077;-64
2022/01/20 10:58:55;;;;;;;9.60;2.22;;;;;;;;;;5134421;27;20054;-62
2022/01/20 11:01:21;;;;;;;8.95;1.48;;;;;;;;;;5134475;27;20043;-62
2022/01/20 11:03:47;;;;;;;8.80;1.63;;;;;;;;;;5134935;27;20027;-61
2022/01/20 11:06:13;;;;;;;5.95;1.35;;;;;;;;;;5134455;27;20485;-61
2022/01/20 11:08:42;;;;;;;7.03;1.50;;;;;;;;;;5134048;27;20039;-63
2022/01/20 11:11:08;;;;;;;9.02;1.85;;;;;;;;;;5134473;27;20043;-64
2022/01/20 11:13:34;;;;;;;5.78;1.00;;;;;;;;;;5134393;27;20473;-62
2022/01/20 11:16:00;;;;;;;9.25;1.50;;;;;;;;;;5134663;27;20105;-62
2022/01/20 11:18:29;;;;;;;9.15;1.40;;;;;;;;;;5134463;27;20086;-61
2022/01/20 11:20:56;;;;;;;8.43;1.63;;;;;;;;;;5134331;27;20031;-60
2022/01/20 11:23:23;;;;;;;12.43;1.50;;;;;;;;;;5133373;27;20092;-63
2022/01/20 11:25:49;;;;;;;9.45;1.80;;;;;;;;;;5134459;27;20497;-61
2022/01/20 11:28:21;;;;;;;15.55;3.00;;;;;;;;;;5134515;27;20038;-62
2022/01/20 11:30:55;;;;;;;11.98;1.35;;;;;;;;;;5134490;27;20046;-62
2022/01/20 11:33:26;;;;;;;7.60;1.33;;;;;;;;;;5134282;27;20435;-62
2022/01/20 11:35:59;;;;;;;8.80;1.17;;;;;;;;;;5134441;27;20074;-63
2022/01/20 11:38:37;;;;;;;12.93;1.45;;;;;;;;;;5134042;27;20038;-63
2022/01/20 11:41:04;;;;;;;7.65;1.90;;;;;;;;;;5134189;27;20133;-62
2022/01/20 11:43:38;;;;;;;7.28;1.60;;;;;;;;;;5134114;27;20039;-62
2022/01/20 11:46:14;;;;;;;8.10;1.60;;;;;;;;;;5133927;27;20070;-62
2022/01/20 11:48:50;;;;;;;9.75;1.10;;;;;;;;;;5116468;27;20039;-62
2022/01/20 11:51:18;;;;;;;7.28;1.27;;;;;;;;;;5130308;27;20042;-63
2022/01/20 11:53:54;;;;;;;13.70;1.80;;;;;;;;;;5133727;27;20047;-63
2022/01/20 11:56:27;;;;;;;9.10;1.65;;;;;;;;;;5133965;27;20054;-62
2022/01/20 11:58:53;;;;;;;8.40;1.88;;;;;;;;;;5134039;27;20049;-64
2022/01/20 12:01:19;;;;;;;9.35;1.45;;;;;;;;;;5133480;27;20035;-61
2022/01/20 12:03:52;;;;;;;14.68;1.90;;;;;;;;;;5133486;27;20041;-62
2022/01/20 12:06:24;;;;;;;13.88;1.83;;;;;;;;;;5133619;27;20078;-62
2022/01/20 12:08:57;;;;;;;10.20;1.50;;;;;;;;;;5133578;27;20042;-62
2022/01/20 12:11:34;;;;;;;11.07;1.35;;;;;;;;;;5133591;27;20038;-65
2022/01/20 12:14:00;;;;;;;9.07;1.30;;;;;;;;;;5133421;27;20035;-64
2022/01/20 12:16:26;;;;;;;6.93;1.33;;;;;;;;;;5133383;27;20109;-62
2022/01/20 12:18:53;;;;;;;11.27;1.80;;;;;;;;;;5133616;27;20118;-63
2022/01/20 12:21:20;;;;;;;10.38;1.52;;;;;;;;;;5115615;27;20545;-63
2022/01/20 12:23:47;;;;;;;9.35;2.30;;;;;;;;;;5132802;27;20032;-61
2022/01/20 12:26:13;;;;;;;8.85;1.25;;;;;;;;;;5133613;27;20660;-63
2022/01/20 12:28:39;;;;;;;9.18;1.38;;;;;;;;;;5129969;27;20434;-63
2022/01/20 12:31:06;;;;;;;10.20;1.73;;;;;;;;;;5132471;27;20039;-63
2022/01/20 12:33:34;;;;;;;7.43;1.45;;;;;;;;;;5113703;27;20035;-62
2022/01/20 12:36:04;;;;;;;11.02;1.80;;;;;;;;;;5132546;27;20046;-64
2022/01/20 12:38:32;;;;;;;10.88;1.67;;;;;;;;;;5114519;27;20115;-63
2022/01/20 12:41:01;;;;;;;14.93;1.98;;;;;;;;;;5132731;27;20043;-64
2022/01/20 12:43:56;;;;;;;10.50;1.73;;;;;;;;;;5132394;27;20035;-65
2022/01/20 12:46:23;;;;;;;14.57;1.88;;;;;;;;;;5129171;27;20096;-63
2022/01/20 12:48:57;;;;;;;14.45;1.90;;;;;;;;;;5132284;27;20045;-64
2022/01/20 12:51:51;;;;;;;12.15;2.08;;;;;;;;;;5132128;27;20041;-63
2022/01/20 12:54:35;;;;;;;9.45;2.33;;;;;;;;;;5130761;27;20131;-64
2022/01/20 12:57:03;;;;;;;11.80;1.90;;;;;;;;;;5132686;27;20085;-63
2022/01/20 12:59:37;;;;;;;13.82;2.38;;;;;;;;;;5131772;27;20042;-62
2022/01/20 13:02:03;;;;;;;15.75;2.03;;;;;;;;;;5132602;27;20035;-63
2022/01/20 13:04:30;;;;;;;10.65;1.65;;;;;;;;;;5132768;27;20074;-62
2022/01/20 13:06:59;;;;;;;12.43;2.20;;;;;;;;;;5132470;27;20508;-63
2022/01/20 13:09:36;;;;;;;11.20;1.80;;;;;;;;;;5132617;27;20039;-63
2022/01/20 13:12:02;;;;;;;14.55;1.83;;;;;;;;;;5132474;27;20065;-63
2022/01/20 13:14:34;;;;;;;10.57;1.52;;;;;;;;;;5132326;27;20049;-62
2022/01/20 13:17:01;;;;;;;9.85;1.60;;;;;;;;;;5132325;27;20381;-63
2022/01/20 13:19:38;;;;;;;8.35;1.58;;;;;;;;;;5132407;27;20074;-62
2022/01/20 13:22:06;;;;;;;9.10;1.77;;;;;;;;;;5114403;27;20039;-63
2022/01/20 13:24:33;;;;;;;12.95;2.97;;;;;;;;;;5132654;27;20088;-63
2022/01/20 13:26:59;;;;;;;12.63;2.40;;;;;;;;;;5132050;27;20031;-63
2022/01/20 13:29:27;;;;;;;9.07;1.40;;;;;;;;;;5131940;27;20398;-62
2022/01/20 13:31:58;;;;;;;13.07;1.90;;;;;;;;;;5131937;27;20042;-64
2022/01/20 13:34:24;;;;;;;11.45;1.95;;;;;;;;;;5131892;27;20042;-62
2022/01/20 13:36:51;;;;;;;13.40;1.55;;;;;;;;;;5131836;27;20035;-65
2022/01/20 13:39:34;;;;;;;11.32;1.40;;;;;;;;;;5131799;27;20043;-63
2022/01/20 13:42:11;;;;;;;12.32;1.73;;;;;;;;;;5132014;27;20050;-63
2022/01/20 13:47:22;;;;;;;9.52;1.75;;;;;;;;;;5131736;27;20126;-61
2022/01/20 13:49:55;;;;;;;12.88;2.25;;;;;;;;;;5131686;27;20035;-62
2022/01/20 13:52:22;;;;;;;11.25;1.40;;;;;;;;;;5131694;27;20065;-61
2022/01/20 13:54:52;;;;;;;7.57;1.58;;;;;;;;;;5131655;27;20114;-62
2022/01/20 13:57:20;;;;;;;11.50;1.48;;;;;;;;;;5131537;27;20054;-66
2022/01/20 13:59:47;;;;;;;13.02;1.63;;;;;;;;;;5131518;27;20074;-64
2022/01/20 14:02:13;;;;;;;7.82;1.48;;;;;;;;;;5131471;28;20039;-63
2022/01/20 14:04:39;;;;;;;5.80;1.33;;;;;;;;;;5131413;28;20043;-62
2022/01/20 14:07:05;;;;;;;12.45;1.90;;;;;;;;;;5131607;28;20865;-62
2022/01/20 14:09:31;;;;;;;12.77;2.13;;;;;;;;;;5131536;28;20077;-63
2022/01/20 14:11:57;;;;;;;13.23;2.00;;;;;;;;;;5131444;28;20081;-63
2022/01/20 14:14:23;;;;;;;13.32;1.90;;;;;;;;;;5113346;28;20467;-61
2022/01/20 14:16:49;;;;;;;12.15;1.90;;;;;;;;;;5131347;28;20035;-63
2022/01/20 14:19:22;;;;;;;10.32;1.33;;;;;;;;;;5130333;28;20039;-62
2022/01/20 14:21:48;;;;;;;11.82;1.38;;;;;;;;;;5126779;28;20045;-62
2022/01/20 14:24:14;;;;;;;10.75;1.50;;;;;;;;;;5130953;28;20031;-63
2022/01/20 14:26:44;;;;;;;5.85;1.42;;;;;;;;;;5130924;28;20144;-61
2022/01/20 14:29:10;;;;;;;8.73;1.20;;;;;;;;;;5131048;27;20051;-63
2022/01/20 14:31:36;;;;;;;5.38;0.98;;;;;;;;;;5130788;28;20062;-63
2022/01/20 14:34:02;;;;;;;10.07;1.00;;;;;;;;;;5131048;28;20122;-62
2022/01/20 14:36:28;;;;;;;7.40;1.10;;;;;;;;;;5130736;28;20091;-63
2022/01/20 14:38:54;;;;;;;5.10;1.00;;;;;;;;;;5130983;28;20035;-62
2022/01/20 14:41:20;;;;;;;6.45;1.20;;;;;;;;;;5130895;28;20043;-62
2022/01/20 14:43:46;;;;;;;5.68;0.68;;;;;;;;;;5131271;28;20045;-62
2022/01/20 14:46:13;;;;;;;4.18;0.60;;;;;;;;;;5130911;28;20763;-64
2022/01/20 14:48:39;;;;;;;5.25;0.80;;;;;;;;;;5130827;28;20039;-62
2022/01/20 14:51:08;;;;;;;4.07;0.90;;;;;;;;;;5130611;28;20031;-62
2022/01/20 14:53:34;;;;;;;4.65;1.17;;;;;;;;;;5112572;28;20051;-64
2022/01/20 14:56:00;;;;;;;4.75;0.50;;;;;;;;;;5131401;27;20046;-63
2022/01/20 14:58:27;;;;;;;5.10;1.02;;;;;;;;;;5134970;27;20071;-61
2022/01/20 15:00:53;;;;;;;7.85;0.90;;;;;;;;;;5134627;27;20512;-61
2022/01/20 15:03:19;;;;;;;5.20;0.70;;;;;;;;;;5134694;27;20486;-61
2022/01/20 15:05:47;;;;;;;6.28;1.27;;;;;;;;;;5134930;27;20046;-62
2022/01/20 15:08:13;;;;;;;4.53;0.88;;;;;;;;;;5134684;27;20042;-63
2022/01/20 15:10:39;;;;;;;7.75;1.00;;;;;;;;;;5134808;27;20057;-64
2022/01/20 15:13:05;;;;;;;10.00;0.90;;;;;;;;;;5134659;27;20047;-64
2022/01/20 15:15:31;;;;;;;4.00;0.85;;;;;;;;;;5134421;27;20038;-63
2022/01/20 15:17:58;;;;;;;13.52;1.50;;;;;;;;;;5134302;27;20046;-60
2022/01/20 15:20:24;;;;;;;11.15;1.00;;;;;;;;;;5134387;27;20408;-63
2022/01/20 15:22:50;;;;;;;5.43;1.10;;;;;;;;;;5116028;27;20047;-62
2022/01/20 15:25:16;;;;;;;6.95;0.95;;;;;;;;;;5134258;27;20039;-63
2022/01/20 15:27:42;;;;;;;7.70;1.25;;;;;;;;;;5116214;27;20036;-61
2022/01/20 15:30:08;;;;;;;5.10;1.15;;;;;;;;;;5134106;27;20045;-63
2022/01/20 15:32:34;;;;;;;12.35;1.20;;;;;;;;;;5134334;27;20039;-63
2022/01/20 15:35:01;;;;;;;5.50;1.13;;;;;;;;;;5134252;27;20490;-60
2022/01/20 15:37:27;;;;;;;8.55;1.13;;;;;;;;;;5134106;27;20469;-62
2022/01/20 15:39:53;;;;;;;6.20;1.52;;;;;;;;;;5134116;27;20035;-63
2022/01/20 15:42:19;;;;;;;9.73;1.30;;;;;;;;;;5115498;27;20051;-62